Cloridorme, Canada
Current Conditions -  °F | °C
As of 11:00 PM on Saturday 20 Dec 2014 (Local Time) from CYGP Reporting Station
Overcast Overcast  
Wind Chill:   Ceiling: 1400
Heat Index: 19°   Visibility: 15mi
Dew Point: 14°   Wind: 8mph
Humidity: 80%   Direction: 260°W
Pressure: 30.39"   Gusts: NA
Location:  49.17°N, 64.92°W
Report Text: CYGP 210400Z 26007KT 15SM OVC014 M07/M10 A3039 RMK SC8 SLP293
Loading
Personal Weather Stations






























Interactive Weather Map New forecast layout! Learn more

10-Day Weather Forecast

Advertisements
Track Severe Weather on mobile